createdAt,value
2023-01-20T00:02:25.285Z,99657.03
2023-01-20T00:05:13.983Z,99653.88
2023-01-20T00:08:02.905Z,99659.44
2023-01-20T00:10:51.550Z,99666.84
2023-01-20T00:13:40.643Z,99666.06
2023-01-20T00:16:31.712Z,99670.63
2023-01-20T00:19:21.716Z,99671.44
2023-01-20T00:22:10.393Z,99668.13
2023-01-20T00:24:58.995Z,99671.25
2023-01-20T00:27:47.796Z,99680.09
2023-01-20T00:30:36.740Z,99681.31
2023-01-20T00:33:25.422Z,99686.66
2023-01-20T00:36:17.089Z,99693.19
2023-01-20T00:39:06.523Z,99688.72
2023-01-20T00:41:55.141Z,99684.19
2023-01-20T00:44:43.799Z,99699.41
2023-01-20T00:47:32.511Z,99692.38
2023-01-20T00:50:21.091Z,99702.47
2023-01-20T00:53:11.146Z,99700.44
2023-01-20T00:55:59.874Z,99706.00
2023-01-20T00:58:48.593Z,99712.97
2023-01-20T01:01:37.349Z,99717.28
2023-01-20T01:04:26.110Z,99719.06
2023-01-20T01:07:14.698Z,99734.69
2023-01-20T01:10:05.027Z,99737.94
2023-01-20T01:12:53.632Z,99748.41
2023-01-20T01:15:42.257Z,99743.53
2023-01-20T01:18:32.101Z,99751.25
2023-01-20T01:21:20.737Z,99755.16
2023-01-20T01:24:09.489Z,99753.53
2023-01-20T01:26:59.493Z,99765.00
2023-01-20T01:29:48.143Z,99773.25
2023-01-20T01:32:36.713Z,99769.78
2023-01-20T01:35:25.291Z,99769.13
2023-01-20T01:38:13.903Z,99773.28
2023-01-20T01:41:02.796Z,99774.50
2023-01-20T01:44:05.374Z,99772.63
2023-01-20T01:46:56.651Z,99771.59
2023-01-20T01:49:45.313Z,99772.00
2023-01-20T01:52:34.419Z,99780.66
2023-01-20T01:55:24.699Z,99788.03
2023-01-20T01:58:16.318Z,99781.47
2023-01-20T02:01:06.864Z,99783.34
2023-01-20T02:03:59.997Z,99783.75
2023-01-20T02:06:51.593Z,99788.00
2023-01-20T02:09:40.542Z,99780.63
2023-01-20T02:12:29.426Z,99783.94
2023-01-20T02:15:22.885Z,99783.38
2023-01-20T02:18:33.124Z,99783.16
2023-01-20T02:21:56.300Z,99786.44
2023-01-20T02:25:07.059Z,99789.72
2023-01-20T02:28:24.184Z,99792.16
2023-01-20T02:31:32.673Z,99794.63
2023-01-20T02:34:27.882Z,99802.66
2023-01-20T02:37:19.098Z,99802.81
2023-01-20T02:40:18.291Z,99799.97
2023-01-20T02:43:11.928Z,99800.41
2023-01-20T02:46:05.043Z,99810.88
2023-01-20T02:48:56.502Z,99813.53
2023-01-20T02:51:52.089Z,99820.94
2023-01-20T02:54:42.762Z,99821.34
2023-01-20T02:57:34.035Z,99816.81
2023-01-20T03:00:25.223Z,99820.16
2023-01-20T03:03:17.159Z,99825.84
2023-01-20T03:06:08.949Z,99823.59
2023-01-20T03:09:02.489Z,99834.09
2023-01-20T03:11:53.356Z,99832.03
2023-01-20T03:14:42.151Z,99834.88
2023-01-20T03:17:30.878Z,99848.63
2023-01-20T03:20:19.898Z,99846.78
2023-01-20T03:23:08.652Z,99839.38
2023-01-20T03:25:58.990Z,99851.69
2023-01-20T03:28:48.820Z,99852.72
2023-01-20T03:31:39.717Z,99862.78
2023-01-20T03:34:30.276Z,99859.47
2023-01-20T03:37:19.046Z,99863.81
2023-01-20T03:40:09.313Z,99869.34
2023-01-20T03:43:02.407Z,99871.00
2023-01-20T03:45:55.858Z,99868.94
2023-01-20T03:48:49.179Z,99873.84
2023-01-20T03:51:44.474Z,99870.56
2023-01-20T03:54:36.831Z,99872.44
2023-01-20T03:57:30.029Z,99881.22
2023-01-20T04:00:23.020Z,99881.03
2023-01-20T04:03:15.158Z,99873.44
2023-01-20T04:06:06.693Z,99873.47
2023-01-20T04:08:57.272Z,99881.66
2023-01-20T04:11:46.030Z,99894.38
2023-01-20T04:14:36.451Z,99892.31
2023-01-20T04:17:29.818Z,99889.06
2023-01-20T04:20:18.683Z,99889.06
2023-01-20T04:23:07.846Z,99896.44
2023-01-20T04:25:56.546Z,99899.72
2023-01-20T04:28:45.081Z,99908.31
2023-01-20T04:31:33.907Z,99906.06
2023-01-20T04:34:23.944Z,99904.63
2023-01-20T04:37:12.571Z,99908.34
2023-01-20T04:40:01.161Z,99904.22
2023-01-20T04:42:49.780Z,99907.91
2023-01-20T04:45:38.365Z,99911.59
2023-01-20T04:48:27.044Z,99925.16
2023-01-20T04:51:17.147Z,99931.75
2023-01-20T04:54:05.798Z,99923.50
2023-01-20T04:56:54.445Z,99926.00
2023-01-20T04:59:43.476Z,99930.91
2023-01-20T05:02:34.818Z,99937.09
2023-01-20T05:05:23.411Z,99946.91
2023-01-20T05:08:13.436Z,99942.00
2023-01-20T05:11:02.097Z,99940.78
2023-01-20T05:13:50.738Z,99950.84
2023-01-20T05:16:39.353Z,99957.19
2023-01-20T05:19:28.001Z,99964.56
2023-01-20T05:22:16.613Z,99962.91
2023-01-20T05:25:07.635Z,99971.34
2023-01-20T05:27:56.365Z,99962.72
2023-01-20T05:30:45.237Z,99964.56
2023-01-20T05:33:34.069Z,99967.03
2023-01-20T05:36:22.790Z,99971.13
2023-01-20T05:39:11.522Z,99976.06
2023-01-20T05:42:02.521Z,99983.66
2023-01-20T05:44:51.166Z,99977.28
2023-01-20T05:47:39.812Z,99987.16
2023-01-20T05:50:29.799Z,99990.44
2023-01-20T05:53:18.900Z,99996.56
2023-01-20T05:56:08.410Z,99995.78
2023-01-20T05:58:58.458Z,99994.94
2023-01-20T06:01:47.097Z,100001.53
2023-01-20T06:04:35.884Z,100002.31
2023-01-20T06:07:24.661Z,100012.59
2023-01-20T06:10:13.871Z,100011.78
2023-01-20T06:13:02.632Z,100020.41
2023-01-20T06:15:54.384Z,100016.28
2023-01-20T06:18:43.167Z,100015.06
2023-01-20T06:21:31.842Z,100023.25
2023-01-20T06:24:20.455Z,100022.47
2023-01-20T06:27:09.292Z,100028.59
2023-01-20T06:30:01.024Z,100028.81
2023-01-20T06:32:51.044Z,100031.06
2023-01-20T06:35:39.762Z,100029.00
2023-01-20T06:38:30.977Z,100040.09
2023-01-20T06:41:20.833Z,100036.81
2023-01-20T06:44:09.499Z,100045.44
2023-01-20T06:46:58.422Z,100050.97
2023-01-20T06:49:48.466Z,100049.97
2023-01-20T06:52:37.145Z,100057.56
2023-01-20T06:55:25.748Z,100055.91
2023-01-20T06:58:14.351Z,100058.19
2023-01-20T07:01:08.742Z,100057.75
2023-01-20T07:03:57.659Z,100059.81
2023-01-20T07:06:47.649Z,100054.06
2023-01-20T07:09:36.228Z,100063.09
2023-01-20T07:12:24.859Z,100068.22
2023-01-20T07:15:14.108Z,100079.50
2023-01-20T07:18:02.915Z,100089.97
2023-01-20T07:20:55.172Z,100091.00
2023-01-20T07:23:47.386Z,100103.31
2023-01-20T07:26:39.053Z,100102.09
2023-01-20T07:29:28.305Z,100109.28
2023-01-20T07:32:17.075Z,100113.78
2023-01-20T07:35:06.264Z,100120.16
2023-01-20T07:37:54.922Z,100121.19
2023-01-20T07:40:44.987Z,100119.72
2023-01-20T07:43:36.020Z,100131.63
2023-01-20T07:46:24.738Z,100132.44
2023-01-20T07:49:13.582Z,100150.69
2023-01-20T07:52:02.305Z,100147.41
2023-01-20T07:54:50.922Z,100161.59
2023-01-20T07:57:40.895Z,100163.63
2023-01-20T08:00:29.522Z,100166.53
2023-01-20T08:03:18.167Z,100159.78
2023-01-20T08:06:07.887Z,100166.53
2023-01-20T08:08:58.825Z,100166.97
2023-01-20T08:11:47.726Z,100170.28
2023-01-20T08:14:38.012Z,100172.34
2023-01-20T08:17:26.612Z,100172.34
2023-01-20T08:20:15.295Z,100168.63
2023-01-20T08:23:03.986Z,100176.47
2023-01-20T08:25:59.886Z,100179.31
2023-01-20T08:28:49.163Z,100186.91
2023-01-20T08:31:39.633Z,100191.66
2023-01-20T08:34:28.911Z,100192.09
2023-01-20T08:37:17.563Z,100198.66
2023-01-20T08:40:08.514Z,100201.94
2023-01-20T08:42:57.134Z,100205.25
2023-01-20T08:45:45.898Z,100213.66
2023-01-20T08:48:36.265Z,100216.75
2023-01-20T08:51:27.841Z,100220.88
2023-01-20T08:54:16.746Z,100220.63
2023-01-20T08:57:05.572Z,100223.72
2023-01-20T08:59:54.388Z,100227.63
2023-01-20T09:02:43.339Z,100232.78
2023-01-20T09:05:33.363Z,100229.25
2023-01-20T09:08:22.352Z,100225.81
2023-01-20T09:11:13.336Z,100217.19
2023-01-20T09:14:02.228Z,100235.84
2023-01-20T09:16:51.107Z,100233.19
2023-01-20T09:19:39.852Z,100244.91
2023-01-20T09:22:29.854Z,100247.16
2023-01-20T09:25:18.678Z,100249.63
2023-01-20T09:28:10.196Z,100246.31
2023-01-20T09:31:00.098Z,100254.16
2023-01-20T09:33:49.094Z,100258.28
2023-01-20T09:36:38.215Z,100265.25
2023-01-20T09:39:46.172Z,100263.63
2023-01-20T09:43:07.913Z,100256.41
2023-01-20T09:45:58.936Z,100262.34
2023-01-20T09:49:09.967Z,100251.69
2023-01-20T09:52:22.187Z,100256.03
2023-01-20T09:55:17.328Z,100250.47
2023-01-20T09:58:12.068Z,100257.44
2023-01-20T10:01:08.674Z,100245.53
2023-01-20T10:04:00.124Z,100255.78
2023-01-20T10:06:50.771Z,100260.31
2023-01-20T10:09:43.454Z,100257.03
2023-01-20T10:12:36.371Z,100264.41
2023-01-20T10:15:27.438Z,100267.69
2023-01-20T10:18:21.178Z,100273.88
2023-01-20T10:21:13.126Z,100268.13
2023-01-20T10:24:05.742Z,100269.38
2023-01-20T10:26:56.672Z,100266.03
2023-01-20T10:29:49.724Z,100272.63
2023-01-20T10:32:40.521Z,100268.94
2023-01-20T10:35:30.700Z,100269.78
2023-01-20T10:38:22.644Z,100270.59
2023-01-20T10:41:18.664Z,100271.84
2023-01-20T10:44:13.161Z,100274.72
2023-01-20T10:47:17.644Z,100275.69
2023-01-20T10:50:38.964Z,100275.09
2023-01-20T10:53:53.056Z,100277.31
2023-01-20T10:56:45.317Z,100279.63
2023-01-20T10:59:36.505Z,100281.22
2023-01-20T11:02:29.004Z,100283.50
2023-01-20T11:05:19.961Z,100288.25
2023-01-20T11:08:12.302Z,100293.00
2023-01-20T11:11:02.939Z,100292.19
2023-01-20T11:13:52.718Z,100298.53
2023-01-20T11:16:44.812Z,100297.94
2023-01-20T11:19:48.850Z,100295.25
2023-01-20T11:22:38.757Z,100305.09
2023-01-20T11:25:28.601Z,100300.16
2023-01-20T11:28:19.059Z,100301.81
2023-01-20T11:31:07.882Z,100303.25
2023-01-20T11:33:58.666Z,100311.28
2023-01-20T11:36:49.391Z,100320.75
2023-01-20T11:39:44.012Z,100316.41
2023-01-20T11:42:43.044Z,100324.03
2023-01-20T11:45:34.731Z,100326.47
2023-01-20T11:48:23.442Z,100329.38
2023-01-20T11:51:21.352Z,100332.44
2023-01-20T11:54:16.800Z,100338.59
2023-01-20T11:57:07.627Z,100342.09
2023-01-20T11:59:56.298Z,100346.59
2023-01-20T12:02:45.466Z,100344.97
2023-01-20T12:05:37.641Z,100352.53
2023-01-20T12:08:29.950Z,100352.78
2023-01-20T12:11:23.275Z,100354.44
2023-01-20T12:14:28.584Z,100359.78
2023-01-20T12:17:21.322Z,100362.63
2023-01-20T12:20:18.703Z,100367.50
2023-01-20T12:23:21.201Z,100371.59
2023-01-20T12:26:11.704Z,100373.28
2023-01-20T12:29:05.393Z,100373.66
2023-01-20T12:31:54.494Z,100374.69
2023-01-20T12:34:43.220Z,100380.19
2023-01-20T12:37:34.201Z,100379.00
2023-01-20T12:40:28.891Z,100379.47
2023-01-20T12:43:40.548Z,100379.88
2023-01-20T12:46:37.525Z,100380.72
2023-01-20T12:49:38.401Z,100390.38
2023-01-20T12:52:37.632Z,100389.78
2023-01-20T12:55:34.653Z,100395.53
2023-01-20T12:58:35.742Z,100401.69
2023-01-20T13:01:44.269Z,100398.22
2023-01-20T13:04:49.870Z,100406.00
2023-01-20T13:07:56.051Z,100401.06
2023-01-20T13:10:51.554Z,100406.41
2023-01-20T13:13:57.000Z,100411.34
2023-01-20T13:16:52.067Z,100404.38
2023-01-20T13:19:42.569Z,100411.34
2023-01-20T13:22:31.421Z,100414.44
2023-01-20T13:25:20.327Z,100416.47
2023-01-20T13:28:16.807Z,100416.03
2023-01-20T13:31:33.941Z,100413.81
2023-01-20T13:34:37.179Z,100419.34
2023-01-20T13:37:30.971Z,100421.38
2023-01-20T13:40:49.278Z,100426.13
2023-01-20T13:43:50.339Z,100428.38
2023-01-20T13:46:50.108Z,100431.66
2023-01-20T13:49:53.689Z,100434.16
2023-01-20T13:53:05.447Z,100435.34
2023-01-20T13:56:04.056Z,100433.28
2023-01-20T13:58:52.995Z,100436.56
2023-01-20T14:01:41.785Z,100441.94
2023-01-20T14:04:33.029Z,100438.16
2023-01-20T14:07:27.164Z,100447.59
2023-01-20T14:10:16.084Z,100440.47
2023-01-20T14:13:11.853Z,100442.31
2023-01-20T14:16:01.621Z,100441.06
2023-01-20T14:18:50.611Z,100456.69
2023-01-20T14:21:42.769Z,100455.09
2023-01-20T14:24:35.273Z,100457.09
2023-01-20T14:27:27.234Z,100466.75
2023-01-20T14:30:21.867Z,100475.03
2023-01-20T14:33:16.205Z,100474.38
2023-01-20T14:36:08.441Z,100479.56
2023-01-20T14:38:59.044Z,100485.94
2023-01-20T14:41:50.638Z,100484.69
2023-01-20T14:44:40.150Z,100494.72
2023-01-20T14:47:39.359Z,100494.88
2023-01-20T14:50:28.761Z,100498.19
2023-01-20T14:53:31.696Z,100501.84
2023-01-20T14:56:21.605Z,100500.22
2023-01-20T14:59:20.160Z,100502.03
2023-01-20T15:02:16.403Z,100508.66
2023-01-20T15:05:20.535Z,100516.25
2023-01-20T15:08:25.193Z,100522.44
2023-01-20T15:11:26.104Z,100527.41
2023-01-20T15:14:14.761Z,100539.75
2023-01-20T15:17:03.715Z,100537.69
2023-01-20T15:19:53.049Z,100548.78
2023-01-20T15:22:44.228Z,100545.91
2023-01-20T15:25:32.790Z,100538.50
2023-01-20T15:28:28.639Z,100546.34
2023-01-20T15:31:18.358Z,100555.38
2023-01-20T15:34:07.103Z,100554.13
2023-01-20T15:36:57.104Z,100556.13
2023-01-20T15:39:45.948Z,100561.94
2023-01-20T15:42:34.573Z,100563.38
2023-01-20T15:45:25.829Z,100568.47
2023-01-20T15:48:19.006Z,100563.47
2023-01-20T15:51:08.189Z,100570.28
2023-01-20T15:53:56.808Z,100568.28
2023-01-20T15:56:45.905Z,100580.63
2023-01-20T15:59:34.481Z,100578.38
2023-01-20T16:02:25.115Z,100578.78
2023-01-20T16:05:17.140Z,100588.19
2023-01-20T16:08:13.823Z,100588.19
2023-01-20T16:11:02.519Z,100587.56
2023-01-20T16:13:51.262Z,100591.13
2023-01-20T16:16:39.999Z,100596.88
2023-01-20T16:19:30.162Z,100596.47
2023-01-20T16:22:19.070Z,100595.88
2023-01-20T16:25:08.876Z,100608.31
2023-01-20T16:27:59.265Z,100609.56
2023-01-20T16:30:48.314Z,100612.03
2023-01-20T16:33:37.002Z,100609.56
2023-01-20T16:36:27.066Z,100612.03
2023-01-20T16:39:15.702Z,100623.94
2023-01-20T16:42:04.466Z,100626.41
2023-01-20T16:44:54.288Z,100629.44
2023-01-20T16:47:42.903Z,100634.50
2023-01-20T16:50:31.658Z,100644.00
2023-01-20T16:53:21.952Z,100656.72
2023-01-20T16:56:15.216Z,100655.16
2023-01-20T16:59:05.654Z,100662.56
2023-01-20T17:01:54.315Z,100667.06
2023-01-20T17:04:42.964Z,100668.31
2023-01-20T17:07:31.594Z,100671.25
2023-01-20T17:10:22.117Z,100673.66
2023-01-20T17:13:10.832Z,100681.44
2023-01-20T17:16:00.253Z,100682.31
2023-01-20T17:18:50.509Z,100685.25
2023-01-20T17:21:40.055Z,100680.28
2023-01-20T17:24:28.781Z,100688.94
2023-01-20T17:27:18.775Z,100694.09
2023-01-20T17:30:09.416Z,100685.69
2023-01-20T17:32:58.117Z,100693.22
2023-01-20T17:35:47.258Z,100695.53
2023-01-20T17:38:37.544Z,100694.22
2023-01-20T17:41:26.279Z,100699.19
2023-01-20T17:44:16.583Z,100705.16
2023-01-20T17:47:05.507Z,100702.13
2023-01-20T17:49:54.183Z,100708.75
2023-01-20T17:52:42.786Z,100709.56
2023-01-20T17:55:31.463Z,100719.66
2023-01-20T17:58:20.150Z,100720.09
2023-01-20T18:01:15.346Z,100718.69
2023-01-20T18:04:08.355Z,100720.38
2023-01-20T18:06:59.552Z,100714.03
2023-01-20T18:09:48.237Z,100719.78
2023-01-20T18:12:36.848Z,100724.38
2023-01-20T18:15:25.939Z,100726.47
2023-01-20T18:18:16.013Z,100735.81
2023-01-20T18:21:12.083Z,100730.09
2023-01-20T18:24:01.136Z,100739.00
2023-01-20T18:26:49.838Z,100744.00
2023-01-20T18:29:38.516Z,100751.75
2023-01-20T18:32:27.206Z,100742.34
2023-01-20T18:35:17.443Z,100751.00
2023-01-20T18:38:06.183Z,100747.94
2023-01-20T18:40:54.867Z,100754.78
2023-01-20T18:43:43.587Z,100752.13
2023-01-20T18:46:33.456Z,100745.78
2023-01-20T18:49:22.241Z,100751.75
2023-01-20T18:52:12.272Z,100753.28
2023-01-20T18:55:01.355Z,100761.09
2023-01-20T18:57:50.017Z,100757.84
2023-01-20T19:00:38.841Z,100763.72
2023-01-20T19:03:27.738Z,100761.34
2023-01-20T19:06:17.794Z,100769.63
2023-01-20T19:09:08.459Z,100767.84
2023-01-20T19:11:57.124Z,100766.38
2023-01-20T19:14:45.758Z,100771.94
2023-01-20T19:17:34.442Z,100770.28
2023-01-20T19:20:24.035Z,100772.09
2023-01-20T19:23:13.731Z,100773.81
2023-01-20T19:26:05.453Z,100770.59
2023-01-20T19:28:58.178Z,100768.38
2023-01-20T19:31:47.101Z,100763.47
2023-01-20T19:34:35.902Z,100768.41
2023-01-20T19:37:24.619Z,100771.09
2023-01-20T19:40:13.625Z,100771.19
2023-01-20T19:43:03.831Z,100769.13
2023-01-20T19:45:52.516Z,100772.06
2023-01-20T19:48:41.556Z,100782.34
2023-01-20T19:51:31.732Z,100781.31
2023-01-20T19:54:20.820Z,100786.25
2023-01-20T19:57:09.609Z,100784.19
2023-01-20T19:59:59.760Z,100795.59
2023-01-20T20:02:48.752Z,100794.31
2023-01-20T20:05:40.785Z,100800.09
2023-01-20T20:08:29.633Z,100802.69
2023-01-20T20:11:21.343Z,100810.69
2023-01-20T20:14:13.384Z,100811.53
2023-01-20T20:17:03.825Z,100814.19
2023-01-20T20:19:52.431Z,100812.56
2023-01-20T20:22:41.469Z,100820.66
2023-01-20T20:25:30.188Z,100822.72
2023-01-20T20:28:19.461Z,100822.34
2023-01-20T20:31:09.277Z,100829.34
2023-01-20T20:34:00.733Z,100825.66
2023-01-20T20:36:49.586Z,100831.84
2023-01-20T20:39:38.374Z,100833.47
2023-01-20T20:42:27.239Z,100845.81
2023-01-20T20:45:15.802Z,100850.78
2023-01-20T20:48:04.623Z,100856.94
2023-01-20T20:50:54.660Z,100851.88
2023-01-20T20:53:43.933Z,100851.50
2023-01-20T20:56:32.909Z,100854.06
2023-01-20T20:59:24.643Z,100856.34
2023-01-20T21:02:14.953Z,100855.31
2023-01-20T21:05:03.647Z,100862.38
2023-01-20T21:07:53.753Z,100860.75
2023-01-20T21:10:42.526Z,100868.16
2023-01-20T21:13:34.363Z,100868.66
2023-01-20T21:16:26.270Z,100871.72
2023-01-20T21:19:17.607Z,100877.28
2023-01-20T21:22:06.236Z,100877.53
2023-01-20T21:24:56.245Z,100882.91
2023-01-20T21:27:44.949Z,100883.13
2023-01-20T21:30:33.531Z,100878.78
2023-01-20T21:33:22.306Z,100885.78
2023-01-20T21:36:15.301Z,100891.28
2023-01-20T21:39:05.349Z,100887.22
2023-01-20T21:41:55.437Z,100896.03
2023-01-20T21:44:44.090Z,100891.56
2023-01-20T21:47:32.948Z,100900.22
2023-01-20T21:50:39.361Z,100899.81
2023-01-20T21:53:27.999Z,100887.91
2023-01-20T21:56:18.209Z,100896.53
2023-01-20T21:59:08.638Z,100898.41
2023-01-20T22:01:57.278Z,100909.75
2023-01-20T22:04:47.210Z,100914.69
2023-01-20T22:07:36.178Z,100909.34
2023-01-20T22:10:24.826Z,100917.16
2023-01-20T22:13:13.475Z,100917.97
2023-01-20T22:16:05.482Z,100914.84
2023-01-20T22:18:54.816Z,100925.72
2023-01-20T22:21:43.797Z,100927.03
2023-01-20T22:24:32.449Z,100931.34
2023-01-20T22:27:21.090Z,100930.84
2023-01-20T22:30:11.111Z,100933.50
2023-01-20T22:33:01.191Z,100931.84
2023-01-20T22:35:49.861Z,100933.44
2023-01-20T22:38:38.620Z,100938.22
2023-01-20T22:41:27.287Z,100943.69
2023-01-20T22:44:16.052Z,100933.31
2023-01-20T22:47:05.762Z,100928.09
2023-01-20T22:49:56.856Z,100931.88
2023-01-20T22:52:45.554Z,100929.78
2023-01-20T22:55:34.236Z,100921.63
2023-01-20T22:58:22.885Z,100926.97
2023-01-20T23:01:14.284Z,100933.16
2023-01-20T23:04:05.006Z,100925.56
2023-01-20T23:06:54.993Z,100934.38
2023-01-20T23:09:46.457Z,100937.69
2023-01-20T23:12:36.706Z,100934.13
2023-01-20T23:15:25.595Z,100931.59
2023-01-20T23:18:14.284Z,100937.97
2023-01-20T23:21:05.747Z,100943.97
2023-01-20T23:23:55.991Z,100942.38
2023-01-20T23:26:44.704Z,100947.56
2023-01-20T23:29:33.511Z,100949.88
2023-01-20T23:32:22.083Z,100952.84
2023-01-20T23:35:11.301Z,100957.91
2023-01-20T23:37:59.886Z,100953.59
2023-01-20T23:40:50.566Z,100955.88
2023-01-20T23:43:39.271Z,100961.94
2023-01-20T23:46:27.971Z,100963.59
2023-01-20T23:49:16.578Z,100965.19
2023-01-20T23:52:05.988Z,100967.56
2023-01-20T23:54:54.879Z,100968.22
2023-01-20T23:57:44.844Z,100966.16
